KFCM/FCM METAR and TAF weather

Enter ICAO airport designator
Station Type Date Time Source
KFCM METAR 2020/01/23 21:17 UTC NOAA

KFCM 232117Z 06006KT 1 1/2SM -SN OVC016 01/M03 A3001 RMK AO2 P0000 T00061028


Station Type Date Time Source
KFCM Decoded METAR 2020/01/23 21:17 UTC NOAA

Minneapolis, Flying Cloud Airport, MN, United States (KFCM) 44-49-56N 093-28-13W 280M
Jan 23, 2020 - 04:17 PM EST / 2020.01.23 2117 UTC
Wind: from the ENE (060 degrees) at 7 MPH (6 KT):0
Visibility: 1 1/2 mile(s):0
Sky conditions: overcast
Weather: light snow
Precipitation last hour: A trace
Temperature: 33.1 F (0.6 C)
Windchill: 26 F (-3 C):1
Dew Point: 27.0 F (-2.8 C)
Relative Humidity: 77%
Pressure (altimeter): 30.01 in. Hg (1016 hPa)
ob: KFCM 232117Z 06006KT 1 1/2SM -SN OVC016 01/M03 A3001 RMK AO2 P0000 T00061028
cycle: 21

Station Type Date Time Source
KFCM TAF 2018/02/05 20:59 UTC NOAA

TAF
AMD KFCM 051959Z 0520/0618 27007KT 6SM -SHSN BKN020 OVC050
TEMPO 0520/0522 SCT020 BKN050
FM052200 27007KT P6SM FEW020 BKN100
FM060100 31007KT P6SM FEW200
FM061000 VRB03KT P6SM FEW250
AMD NOT SKED

Example: see airport list